sensor_id;sensor_type;location;lat;lon;timestamp;pressure;altitude;pressure_sealevel;temperature;humidity
46087;BME280;31824;49.648;8.640;2023-05-11T00:02:18;100126.19;;;11.90;100.00
46087;BME280;31824;49.648;8.640;2023-05-11T00:05:20;100125.66;;;11.83;100.00
46087;BME280;31824;49.648;8.640;2023-05-11T00:08:22;100135.56;;;11.96;100.00
46087;BME280;31824;49.648;8.640;2023-05-11T00:11:24;100126.03;;;11.88;100.00
46087;BME280;31824;49.648;8.640;2023-05-11T00:14:27;100126.44;;;11.82;100.00
46087;BME280;31824;49.648;8.640;2023-05-11T00:17:29;100129.06;;;11.82;100.00
46087;BME280;31824;49.648;8.640;2023-05-11T00:20:31;100119.84;;;11.77;100.00
46087;BME280;31824;49.648;8.640;2023-05-11T00:23:33;100118.69;;;11.74;100.00
46087;BME280;31824;49.648;8.640;2023-05-11T00:26:34;100119.72;;;11.76;100.00
46087;BME280;31824;49.648;8.640;2023-05-11T00:29:38;100125.00;;;11.86;100.00
46087;BME280;31824;49.648;8.640;2023-05-11T00:32:39;100117.50;;;11.91;100.00
46087;BME280;31824;49.648;8.640;2023-05-11T00:35:42;100117.78;;;11.83;100.00
46087;BME280;31824;49.648;8.640;2023-05-11T00:38:44;100118.94;;;11.77;100.00
46087;BME280;31824;49.648;8.640;2023-05-11T00:41:46;100117.00;;;11.85;100.00
46087;BME280;31824;49.648;8.640;2023-05-11T00:44:49;100116.84;;;11.73;100.00
46087;BME280;31824;49.648;8.640;2023-05-11T00:47:50;100105.00;;;11.68;100.00
46087;BME280;31824;49.648;8.640;2023-05-11T00:50:52;100102.50;;;11.59;100.00
46087;BME280;31824;49.648;8.640;2023-05-11T00:53:54;100115.38;;;11.66;100.00
46087;BME280;31824;49.648;8.640;2023-05-11T00:56:57;100105.41;;;11.72;100.00
46087;BME280;31824;49.648;8.640;2023-05-11T01:00:03;100110.38;;;11.59;100.00
46087;BME280;31824;49.648;8.640;2023-05-11T01:03:05;100101.03;;;11.62;100.00
46087;BME280;31824;49.648;8.640;2023-05-11T01:06:10;100104.09;;;11.67;100.00
46087;BME280;31824;49.648;8.640;2023-05-11T01:09:30;100115.66;;;11.59;100.00
46087;BME280;31824;49.648;8.640;2023-05-11T01:12:39;100111.44;;;11.61;100.00
46087;BME280;31824;49.648;8.640;2023-05-11T01:16:08;100101.69;;;11.49;100.00
46087;BME280;31824;49.648;8.640;2023-05-11T01:19:20;100109.47;;;11.48;100.00
46087;BME280;31824;49.648;8.640;2023-05-11T01:22:37;100106.28;;;11.31;100.00
46087;BME280;31824;49.648;8.640;2023-05-11T01:25:55;100101.94;;;11.32;100.00
46087;BME280;31824;49.648;8.640;2023-05-11T01:29:37;100104.81;;;11.35;100.00
46087;BME280;31824;49.648;8.640;2023-05-11T01:32:43;100105.03;;;11.18;100.00
46087;BME280;31824;49.648;8.640;2023-05-11T01:35:50;100104.19;;;10.98;100.00
46087;BME280;31824;49.648;8.640;2023-05-11T01:38:57;100110.38;;;10.98;100.00
46087;BME280;31824;49.648;8.640;2023-05-11T01:42:05;100110.50;;;11.00;100.00
46087;BME280;31824;49.648;8.640;2023-05-11T01:45:09;100105.41;;;11.02;100.00
46087;BME280;31824;49.648;8.640;2023-05-11T01:48:16;100105.25;;;11.00;100.00
46087;BME280;31824;49.648;8.640;2023-05-11T01:51:19;100108.44;;;11.06;100.00
46087;BME280;31824;49.648;8.640;2023-05-11T01:54:22;100107.44;;;11.25;100.00
46087;BME280;31824;49.648;8.640;2023-05-11T01:57:25;100104.78;;;11.14;100.00
46087;BME280;31824;49.648;8.640;2023-05-11T02:00:29;100110.81;;;11.13;100.00
46087;BME280;31824;49.648;8.640;2023-05-11T02:03:34;100110.69;;;11.12;100.00
46087;BME280;31824;49.648;8.640;2023-05-11T02:06:38;100107.66;;;11.07;100.00
46087;BME280;31824;49.648;8.640;2023-05-11T02:09:41;100112.34;;;11.01;100.00
46087;BME280;31824;49.648;8.640;2023-05-11T02:12:44;100112.63;;;11.04;100.00
46087;BME280;31824;49.648;8.640;2023-05-11T02:15:50;100111.47;;;11.11;100.00
46087;BME280;31824;49.648;8.640;2023-05-11T02:18:56;100107.78;;;11.19;100.00
46087;BME280;31824;49.648;8.640;2023-05-11T02:22:00;100107.44;;;11.25;100.00
46087;BME280;31824;49.648;8.640;2023-05-11T02:25:02;100101.38;;;11.26;100.00
46087;BME280;31824;49.648;8.640;2023-05-11T02:28:04;100104.38;;;11.20;100.00
46087;BME280;31824;49.648;8.640;2023-05-11T02:31:18;100107.13;;;11.11;100.00
46087;BME280;31824;49.648;8.640;2023-05-11T02:34:24;100096.06;;;11.05;100.00
46087;BME280;31824;49.648;8.640;2023-05-11T02:37:27;100096.88;;;11.14;100.00
46087;BME280;31824;49.648;8.640;2023-05-11T02:40:33;100099.78;;;11.07;100.00
46087;BME280;31824;49.648;8.640;2023-05-11T02:43:45;100094.50;;;11.07;100.00
46087;BME280;31824;49.648;8.640;2023-05-11T02:46:48;100098.03;;;10.97;100.00
46087;BME280;31824;49.648;8.640;2023-05-11T02:49:54;100105.22;;;10.90;100.00
46087;BME280;31824;49.648;8.640;2023-05-11T02:53:03;100103.44;;;10.99;100.00
46087;BME280;31824;49.648;8.640;2023-05-11T02:56:08;100102.47;;;10.88;100.00
46087;BME280;31824;49.648;8.640;2023-05-11T02:59:11;100102.53;;;10.79;100.00
46087;BME280;31824;49.648;8.640;2023-05-11T03:02:13;100100.16;;;10.72;100.00
46087;BME280;31824;49.648;8.640;2023-05-11T03:05:17;100101.44;;;10.67;100.00
46087;BME280;31824;49.648;8.640;2023-05-11T03:08:20;100101.81;;;10.61;100.00
46087;BME280;31824;49.648;8.640;2023-05-11T03:11:22;100109.56;;;10.60;100.00
46087;BME280;31824;49.648;8.640;2023-05-11T03:14:24;100110.72;;;10.53;100.00
46087;BME280;31824;49.648;8.640;2023-05-11T03:17:30;100105.72;;;10.56;100.00
46087;BME280;31824;49.648;8.640;2023-05-11T03:20:35;100102.38;;;10.68;100.00
46087;BME280;31824;49.648;8.640;2023-05-11T03:23:38;100105.69;;;10.75;100.00
46087;BME280;31824;49.648;8.640;2023-05-11T03:26:42;100113.41;;;10.63;100.00
46087;BME280;31824;49.648;8.640;2023-05-11T03:29:44;100104.94;;;10.57;100.00
46087;BME280;31824;49.648;8.640;2023-05-11T03:32:48;100110.72;;;10.53;100.00
46087;BME280;31824;49.648;8.640;2023-05-11T03:35:52;100111.78;;;10.55;100.00
46087;BME280;31824;49.648;8.640;2023-05-11T03:38:57;100106.34;;;10.54;100.00
46087;BME280;31824;49.648;8.640;2023-05-11T03:42:05;100102.69;;;10.52;100.00
46087;BME280;31824;49.648;8.640;2023-05-11T03:45:12;100093.59;;;10.48;100.00
46087;BME280;31824;49.648;8.640;2023-05-11T03:48:15;100094.94;;;10.53;100.00
46087;BME280;31824;49.648;8.640;2023-05-11T03:51:20;100108.22;;;10.55;100.00
46087;BME280;31824;49.648;8.640;2023-05-11T03:54:22;100109.56;;;10.60;100.00
46087;BME280;31824;49.648;8.640;2023-05-11T03:57:24;100109.41;;;10.58;100.00
46087;BME280;31824;49.648;8.640;2023-05-11T04:00:27;100107.16;;;10.53;100.00
46087;BME280;31824;49.648;8.640;2023-05-11T04:03:29;100107.44;;;10.56;100.00
46087;BME280;31824;49.648;8.640;2023-05-11T04:06:32;100104.06;;;10.67;100.00
46087;BME280;31824;49.648;8.640;2023-05-11T04:09:42;100107.63;;;10.68;100.00
46087;BME280;31824;49.648;8.640;2023-05-11T04:12:44;100098.31;;;10.71;100.00
46087;BME280;31824;49.648;8.640;2023-05-11T04:15:45;100102.66;;;10.71;100.00
46087;BME280;31824;49.648;8.640;2023-05-11T04:18:47;100105.41;;;10.72;100.00
46087;BME280;31824;49.648;8.640;2023-05-11T04:21:50;100109.38;;;10.77;100.00
46087;BME280;31824;49.648;8.640;2023-05-11T04:24:52;100102.69;;;10.81;100.00
46087;BME280;31824;49.648;8.640;2023-05-11T04:27:54;100101.50;;;10.77;100.00
46087;BME280;31824;49.648;8.640;2023-05-11T04:30:56;100106.88;;;10.79;100.00
46087;BME280;31824;49.648;8.640;2023-05-11T04:33:58;100108.88;;;10.92;100.00
46087;BME280;31824;49.648;8.640;2023-05-11T04:37:01;100114.72;;;10.98;100.00
46087;BME280;31824;49.648;8.640;2023-05-11T04:40:09;100114.59;;;11.07;100.00
46087;BME280;31824;49.648;8.640;2023-05-11T04:43:14;100112.91;;;11.07;100.00
46087;BME280;31824;49.648;8.640;2023-05-11T04:46:16;100123.19;;;11.14;100.00
46087;BME280;31824;49.648;8.640;2023-05-11T04:49:18;100124.25;;;11.17;100.00
46087;BME280;31824;49.648;8.640;2023-05-11T04:52:22;100125.56;;;11.22;100.00
46087;BME280;31824;49.648;8.640;2023-05-11T04:55:24;100118.75;;;11.24;100.00
46087;BME280;31824;49.648;8.640;2023-05-11T04:58:28;100123.75;;;11.31;100.00
46087;BME280;31824;49.648;8.640;2023-05-11T05:01:29;100132.16;;;11.27;100.00
46087;BME280;31824;49.648;8.640;2023-05-11T05:04:31;100125.72;;;11.34;100.00
46087;BME280;31824;49.648;8.640;2023-05-11T05:07:38;100128.63;;;11.37;100.00
46087;BME280;31824;49.648;8.640;2023-05-11T05:10:39;100134.81;;;11.37;100.00
46087;BME280;31824;49.648;8.640;2023-05-11T05:13:41;100135.47;;;11.45;100.00
46087;BME280;31824;49.648;8.640;2023-05-11T05:16:43;100129.94;;;11.42;100.00
46087;BME280;31824;49.648;8.640;2023-05-11T05:19:44;100133.25;;;11.49;100.00
46087;BME280;31824;49.648;8.640;2023-05-11T05:22:48;100133.69;;;11.64;100.00
46087;BME280;31824;49.648;8.640;2023-05-11T05:25:49;100143.22;;;11.33;100.00
46087;BME280;31824;49.648;8.640;2023-05-11T05:28:51;100142.19;;;11.41;100.00
46087;BME280;31824;49.648;8.640;2023-05-11T05:31:54;100143.78;;;11.49;100.00
46087;BME280;31824;49.648;8.640;2023-05-11T05:34:57;100146.69;;;11.53;100.00
46087;BME280;31824;49.648;8.640;2023-05-11T05:38:01;100152.38;;;11.18;100.00
46087;BME280;31824;49.648;8.640;2023-05-11T05:41:03;100147.16;;;11.28;100.00
46087;BME280;31824;49.648;8.640;2023-05-11T05:44:09;100157.72;;;11.48;100.00
46087;BME280;31824;49.648;8.640;2023-05-11T05:47:12;100159.78;;;11.32;100.00
46087;BME280;31824;49.648;8.640;2023-05-11T05:50:14;100163.69;;;11.17;100.00
46087;BME280;31824;49.648;8.640;2023-05-11T05:53:18;100157.28;;;11.34;100.00
46087;BME280;31824;49.648;8.640;2023-05-11T05:56:20;100161.38;;;11.40;100.00
46087;BME280;31824;49.648;8.640;2023-05-11T05:59:23;100161.06;;;11.17;100.00
46087;BME280;31824;49.648;8.640;2023-05-11T06:02:29;100166.44;;;11.18;100.00
46087;BME280;31824;49.648;8.640;2023-05-11T06:05:32;100167.56;;;11.01;100.00
46087;BME280;31824;49.648;8.640;2023-05-11T06:08:35;100162.34;;;11.11;100.00
46087;BME280;31824;49.648;8.640;2023-05-11T06:11:37;100169.22;;;11.30;100.00
46087;BME280;31824;49.648;8.640;2023-05-11T06:14:39;100172.84;;;11.51;100.00
46087;BME280;31824;49.648;8.640;2023-05-11T06:17:42;100174.06;;;11.55;100.00
46087;BME280;31824;49.648;8.640;2023-05-11T06:20:46;100172.03;;;11.42;100.00
46087;BME280;31824;49.648;8.640;2023-05-11T06:23:51;100169.31;;;11.61;100.00
46087;BME280;31824;49.648;8.640;2023-05-11T06:26:53;100176.13;;;11.38;100.00
46087;BME280;31824;49.648;8.640;2023-05-11T06:29:56;100171.44;;;11.65;100.00
46087;BME280;31824;49.648;8.640;2023-05-11T06:32:59;100166.94;;;11.64;100.00
46087;BME280;31824;49.648;8.640;2023-05-11T06:36:05;100171.25;;;11.53;100.00
46087;BME280;31824;49.648;8.640;2023-05-11T06:39:10;100171.97;;;11.71;100.00
46087;BME280;31824;49.648;8.640;2023-05-11T06:42:12;100169.72;;;11.55;100.00
46087;BME280;31824;49.648;8.640;2023-05-11T06:45:14;100170.63;;;11.56;100.00
46087;BME280;31824;49.648;8.640;2023-05-11T06:48:16;100167.50;;;11.70;100.00
46087;BME280;31824;49.648;8.640;2023-05-11T06:51:18;100168.53;;;11.62;100.00
46087;BME280;31824;49.648;8.640;2023-05-11T06:54:23;100171.31;;;11.74;100.00
46087;BME280;31824;49.648;8.640;2023-05-11T06:57:25;100167.28;;;12.08;100.00
46087;BME280;31824;49.648;8.640;2023-05-11T07:00:47;100170.41;;;11.94;100.00
46087;BME280;31824;49.648;8.640;2023-05-11T07:03:49;100171.13;;;12.12;100.00
46087;BME280;31824;49.648;8.640;2023-05-11T07:06:54;100169.22;;;11.80;100.00
46087;BME280;31824;49.648;8.640;2023-05-11T07:09:57;100176.59;;;11.74;100.00
46087;BME280;31824;49.648;8.640;2023-05-11T07:12:59;100175.16;;;11.88;100.00
46087;BME280;31824;49.648;8.640;2023-05-11T07:16:01;100177.66;;;11.86;100.00
46087;BME280;31824;49.648;8.640;2023-05-11T07:19:03;100170.06;;;11.99;100.00
46087;BME280;31824;49.648;8.640;2023-05-11T07:22:04;100182.72;;;12.04;100.00
46087;BME280;31824;49.648;8.640;2023-05-11T07:25:08;100168.44;;;12.53;100.00
46087;BME280;31824;49.648;8.640;2023-05-11T07:28:12;100181.47;;;12.52;100.00
46087;BME280;31824;49.648;8.640;2023-05-11T07:31:14;100178.75;;;12.19;100.00
46087;BME280;31824;49.648;8.640;2023-05-11T07:34:17;100182.50;;;12.54;100.00
46087;BME280;31824;49.648;8.640;2023-05-11T07:37:19;100180.06;;;12.04;100.00
46087;BME280;31824;49.648;8.640;2023-05-11T07:40:22;100181.09;;;12.37;100.00
46087;BME280;31824;49.648;8.640;2023-05-11T07:43:24;100186.78;;;12.31;100.00
46087;BME280;31824;49.648;8.640;2023-05-11T07:46:26;100182.94;;;12.48;100.00
46087;BME280;31824;49.648;8.640;2023-05-11T07:49:28;100174.13;;;12.90;100.00
46087;BME280;31824;49.648;8.640;2023-05-11T07:52:43;100175.84;;;12.90;100.00
46087;BME280;31824;49.648;8.640;2023-05-11T07:55:47;100171.34;;;12.99;100.00
46087;BME280;31824;49.648;8.640;2023-05-11T07:58:48;100179.19;;;13.09;100.00
46087;BME280;31824;49.648;8.640;2023-05-11T08:01:50;100176.34;;;12.53;100.00
46087;BME280;31824;49.648;8.640;2023-05-11T08:05:12;100174.06;;;12.78;100.00
46087;BME280;31824;49.648;8.640;2023-05-11T08:08:14;100176.53;;;13.20;100.00
46087;BME280;31824;49.648;8.640;2023-05-11T08:11:17;100176.78;;;13.23;100.00
46087;BME280;31824;49.648;8.640;2023-05-11T08:14:19;100179.06;;;13.08;100.00
46087;BME280;31824;49.648;8.640;2023-05-11T08:17:21;100179.53;;;13.24;100.00
46087;BME280;31824;49.648;8.640;2023-05-11T08:20:23;100185.19;;;13.29;100.00
46087;BME280;31824;49.648;8.640;2023-05-11T08:23:25;100182.06;;;13.23;100.00
46087;BME280;31824;49.648;8.640;2023-05-11T08:26:28;100177.38;;;13.08;100.00
46087;BME280;31824;49.648;8.640;2023-05-11T08:29:30;100180.41;;;13.03;100.00
46087;BME280;31824;49.648;8.640;2023-05-11T08:32:31;100184.63;;;13.43;100.00
46087;BME280;31824;49.648;8.640;2023-05-11T08:35:55;100184.66;;;13.33;100.00
46087;BME280;31824;49.648;8.640;2023-05-11T08:38:57;100177.06;;;12.73;100.00
46087;BME280;31824;49.648;8.640;2023-05-11T08:42:02;100175.34;;;12.83;100.00
46087;BME280;31824;49.648;8.640;2023-05-11T08:45:06;100180.47;;;12.92;100.00
46087;BME280;31824;49.648;8.640;2023-05-11T08:48:08;100185.19;;;13.29;100.00
46087;BME280;31824;49.648;8.640;2023-05-11T08:51:10;100178.13;;;13.72;100.00
46087;BME280;31824;49.648;8.640;2023-05-11T08:54:12;100187.59;;;13.80;100.00
46087;BME280;31824;49.648;8.640;2023-05-11T08:57:16;100189.19;;;14.12;100.00
46087;BME280;31824;49.648;8.640;2023-05-11T09:00:19;100182.31;;;13.80;100.00
46087;BME280;31824;49.648;8.640;2023-05-11T09:03:21;100184.69;;;14.11;100.00
46087;BME280;31824;49.648;8.640;2023-05-11T09:06:23;100179.03;;;14.41;100.00
46087;BME280;31824;49.648;8.640;2023-05-11T09:09:25;100187.31;;;13.99;100.00
46087;BME280;31824;49.648;8.640;2023-05-11T09:12:29;100188.00;;;14.09;100.00
46087;BME280;31824;49.648;8.640;2023-05-11T09:15:31;100186.44;;;14.11;100.00
46087;BME280;31824;49.648;8.640;2023-05-11T09:18:45;100192.59;;;13.77;100.00
46087;BME280;31824;49.648;8.640;2023-05-11T09:21:47;100189.66;;;13.62;100.00
46087;BME280;31824;49.648;8.640;2023-05-11T09:24:49;100183.81;;;14.23;100.00
46087;BME280;31824;49.648;8.640;2023-05-11T09:27:52;100188.06;;;13.87;100.00
46087;BME280;31824;49.648;8.640;2023-05-11T09:30:54;100185.41;;;13.87;100.00
46087;BME280;31824;49.648;8.640;2023-05-11T09:34:07;100184.66;;;13.65;100.00
46087;BME280;31824;49.648;8.640;2023-05-11T09:37:15;100182.53;;;14.17;100.00
46087;BME280;31824;49.648;8.640;2023-05-11T09:40:18;100186.47;;;13.89;100.00
46087;BME280;31824;49.648;8.640;2023-05-11T09:43:29;100189.91;;;13.88;100.00
46087;BME280;31824;49.648;8.640;2023-05-11T09:46:31;100192.44;;;13.86;100.00
46087;BME280;31824;49.648;8.640;2023-05-11T09:49:33;100185.28;;;13.85;100.00
46087;BME280;31824;49.648;8.640;2023-05-11T09:52:42;100184.06;;;14.26;100.00
46087;BME280;31824;49.648;8.640;2023-05-11T09:55:51;100189.78;;;14.20;100.00
46087;BME280;31824;49.648;8.640;2023-05-11T09:58:54;100185.84;;;14.15;100.00
46087;BME280;31824;49.648;8.640;2023-05-11T10:02:15;100189.00;;;13.99;100.00
46087;BME280;31824;49.648;8.640;2023-05-11T10:05:16;100179.78;;;14.16;100.00
46087;BME280;31824;49.648;8.640;2023-05-11T10:08:26;100191.44;;;14.42;100.00
46087;BME280;31824;49.648;8.640;2023-05-11T10:11:28;100188.28;;;14.24;100.00
46087;BME280;31824;49.648;8.640;2023-05-11T10:14:32;100186.63;;;14.36;100.00
46087;BME280;31824;49.648;8.640;2023-05-11T10:17:35;100187.41;;;14.47;100.00
46087;BME280;31824;49.648;8.640;2023-05-11T10:20:37;100179.19;;;14.66;100.00
46087;BME280;31824;49.648;8.640;2023-05-11T10:23:40;100176.78;;;14.81;100.00
46087;BME280;31824;49.648;8.640;2023-05-11T10:26:42;100177.63;;;14.80;100.00
46087;BME280;31824;49.648;8.640;2023-05-11T10:29:46;100191.81;;;14.12;100.00
46087;BME280;31824;49.648;8.640;2023-05-11T10:32:48;100186.09;;;14.18;100.00
46087;BME280;31824;49.648;8.640;2023-05-11T10:35:52;100183.06;;;14.47;100.00
46087;BME280;31824;49.648;8.640;2023-05-11T10:38:55;100175.88;;;14.68;100.00
46087;BME280;31824;49.648;8.640;2023-05-11T10:42:04;100171.50;;;14.69;100.00
46087;BME280;31824;49.648;8.640;2023-05-11T10:45:20;100172.53;;;14.83;100.00
46087;BME280;31824;49.648;8.640;2023-05-11T10:52:04;100173.00;;;14.65;100.00
46087;BME280;31824;49.648;8.640;2023-05-11T10:55:14;100169.44;;;14.89;100.00
46087;BME280;31824;49.648;8.640;2023-05-11T10:58:31;100168.16;;;15.19;100.00
46087;BME280;31824;49.648;8.640;2023-05-11T11:01:41;100165.31;;;15.53;100.00
46087;BME280;31824;49.648;8.640;2023-05-11T11:04:45;100167.91;;;15.28;100.00
46087;BME280;31824;49.648;8.640;2023-05-11T11:07:57;100170.53;;;15.28;100.00
46087;BME280;31824;49.648;8.640;2023-05-11T11:10:59;100165.75;;;15.59;100.00
46087;BME280;31824;49.648;8.640;2023-05-11T11:14:02;100169.06;;;15.08;100.00
46087;BME280;31824;49.648;8.640;2023-05-11T11:17:23;100160.53;;;15.24;100.00
46087;BME280;31824;49.648;8.640;2023-05-11T11:20:49;100162.50;;;15.63;100.00
46087;BME280;31824;49.648;8.640;2023-05-11T11:23:51;100155.94;;;15.33;100.00
46087;BME280;31824;49.648;8.640;2023-05-11T11:26:53;100155.94;;;15.21;100.00
46087;BME280;31824;49.648;8.640;2023-05-11T11:30:15;100156.91;;;14.86;100.00
46087;BME280;31824;49.648;8.640;2023-05-11T11:33:32;100150.97;;;15.38;100.00
46087;BME280;31824;49.648;8.640;2023-05-11T11:37:03;100146.41;;;15.23;100.00
46087;BME280;31824;49.648;8.640;2023-05-11T11:40:06;100149.34;;;15.40;100.00
46087;BME280;31824;49.648;8.640;2023-05-11T11:43:18;100152.59;;;15.98;100.00
46087;BME280;31824;49.648;8.640;2023-05-11T11:46:27;100153.31;;;16.34;100.00
46087;BME280;31824;49.648;8.640;2023-05-11T11:49:31;100153.38;;;15.83;100.00
46087;BME280;31824;49.648;8.640;2023-05-11T11:52:33;100154.94;;;15.93;100.00
46087;BME280;31824;49.648;8.640;2023-05-11T11:55:53;100140.47;;;16.27;100.00
46087;BME280;31824;49.648;8.640;2023-05-11T11:58:55;100143.38;;;16.18;100.00
46087;BME280;31824;49.648;8.640;2023-05-11T12:01:58;100149.63;;;15.93;100.00
46087;BME280;31824;49.648;8.640;2023-05-11T12:05:08;100138.28;;;16.08;100.00
46087;BME280;31824;49.648;8.640;2023-05-11T12:08:12;100136.84;;;16.13;100.00
46087;BME280;31824;49.648;8.640;2023-05-11T12:11:16;100142.22;;;15.64;100.00
46087;BME280;31824;49.648;8.640;2023-05-11T12:14:19;100142.63;;;15.45;100.00
46087;BME280;31824;49.648;8.640;2023-05-11T12:17:23;100139.53;;;15.88;100.00
46087;BME280;31824;49.648;8.640;2023-05-11T12:20:27;100134.06;;;15.61;100.00
46087;BME280;31824;49.648;8.640;2023-05-11T12:23:29;100132.56;;;15.64;100.00
46087;BME280;31824;49.648;8.640;2023-05-11T12:26:32;100128.59;;;16.08;100.00
46087;BME280;31824;49.648;8.640;2023-05-11T12:29:35;100130.44;;;15.47;100.00
46087;BME280;31824;49.648;8.640;2023-05-11T12:32:37;100134.03;;;15.73;100.00
46087;BME280;31824;49.648;8.640;2023-05-11T12:35:40;100131.59;;;15.76;100.00
46087;BME280;31824;49.648;8.640;2023-05-11T12:38:44;100131.69;;;15.52;100.00
46087;BME280;31824;49.648;8.640;2023-05-11T12:41:46;100119.94;;;15.85;100.00
46087;BME280;31824;49.648;8.640;2023-05-11T12:44:49;100121.59;;;15.83;100.00
46087;BME280;31824;49.648;8.640;2023-05-11T12:47:52;100117.84;;;15.93;100.00
46087;BME280;31824;49.648;8.640;2023-05-11T12:50:56;100118.53;;;15.65;100.00
46087;BME280;31824;49.648;8.640;2023-05-11T12:53:58;100113.13;;;16.14;100.00
46087;BME280;31824;49.648;8.640;2023-05-11T12:57:01;100113.88;;;16.79;100.00
46087;BME280;31824;49.648;8.640;2023-05-11T13:00:10;100112.03;;;16.78;100.00
46087;BME280;31824;49.648;8.640;2023-05-11T13:03:12;100104.69;;;16.47;100.00
46087;BME280;31824;49.648;8.640;2023-05-11T13:06:18;100103.88;;;15.96;100.00
46087;BME280;31824;49.648;8.640;2023-05-11T13:09:21;100104.19;;;16.39;100.00
46087;BME280;31824;49.648;8.640;2023-05-11T13:12:23;100105.50;;;16.73;100.00
46087;BME280;31824;49.648;8.640;2023-05-11T13:15:26;100096.00;;;16.49;100.00
46087;BME280;31824;49.648;8.640;2023-05-11T13:18:29;100088.38;;;16.67;100.00
46087;BME280;31824;49.648;8.640;2023-05-11T13:21:32;100082.78;;;16.36;100.00
46087;BME280;31824;49.648;8.640;2023-05-11T13:24:34;100088.66;;;16.45;100.00
46087;BME280;31824;49.648;8.640;2023-05-11T13:27:37;100092.56;;;16.50;100.00
46087;BME280;31824;49.648;8.640;2023-05-11T13:30:38;100087.44;;;16.53;100.00
46087;BME280;31824;49.648;8.640;2023-05-11T13:33:40;100088.59;;;16.70;100.00
46087;BME280;31824;49.648;8.640;2023-05-11T13:36:43;100089.84;;;16.89;100.00
46087;BME280;31824;49.648;8.640;2023-05-11T13:39:45;100090.19;;;16.68;100.00
46087;BME280;31824;49.648;8.640;2023-05-11T13:42:47;100084.28;;;16.19;100.00
46087;BME280;31824;49.648;8.640;2023-05-11T13:45:49;100081.44;;;16.56;100.00
46087;BME280;31824;49.648;8.640;2023-05-11T13:48:50;100078.41;;;16.50;100.00
46087;BME280;31824;49.648;8.640;2023-05-11T13:51:56;100079.91;;;16.73;100.00
46087;BME280;31824;49.648;8.640;2023-05-11T13:54:58;100073.69;;;16.46;100.00
46087;BME280;31824;49.648;8.640;2023-05-11T13:58:00;100074.91;;;16.91;100.00
46087;BME280;31824;49.648;8.640;2023-05-11T14:01:02;100067.06;;;16.93;100.00
46087;BME280;31824;49.648;8.640;2023-05-11T14:04:09;100066.34;;;16.95;100.00
46087;BME280;31824;49.648;8.640;2023-05-11T14:07:12;100056.13;;;17.30;100.00
46087;BME280;31824;49.648;8.640;2023-05-11T14:10:15;100064.41;;;16.93;100.00
46087;BME280;31824;49.648;8.640;2023-05-11T14:13:18;100062.00;;;17.11;100.00
46087;BME280;31824;49.648;8.640;2023-05-11T14:16:21;100065.28;;;17.07;100.00
46087;BME280;31824;49.648;8.640;2023-05-11T14:19:23;100060.72;;;16.50;100.00
46087;BME280;31824;49.648;8.640;2023-05-11T14:22:26;100059.09;;;16.26;100.00
46087;BME280;31824;49.648;8.640;2023-05-11T14:25:28;100043.78;;;16.62;100.00
46087;BME280;31824;49.648;8.640;2023-05-11T14:28:32;100057.28;;;16.38;100.00
46087;BME280;31824;49.648;8.640;2023-05-11T14:31:34;100051.53;;;16.72;100.00
46087;BME280;31824;49.648;8.640;2023-05-11T14:34:36;100051.47;;;16.17;100.00
46087;BME280;31824;49.648;8.640;2023-05-11T14:37:39;100049.75;;;15.92;100.00
46087;BME280;31824;49.648;8.640;2023-05-11T14:40:41;100049.94;;;15.57;100.00
46087;BME280;31824;49.648;8.640;2023-05-11T14:43:43;100052.25;;;15.77;100.00
46087;BME280;31824;49.648;8.640;2023-05-11T14:46:45;100050.44;;;15.76;100.00
46087;BME280;31824;49.648;8.640;2023-05-11T14:49:46;100044.97;;;15.61;100.00
46087;BME280;31824;49.648;8.640;2023-05-11T14:52:50;100044.94;;;15.48;100.00
46087;BME280;31824;49.648;8.640;2023-05-11T14:55:52;100041.59;;;15.13;100.00
46087;BME280;31824;49.648;8.640;2023-05-11T14:58:54;100036.31;;;14.76;100.00
46087;BME280;31824;49.648;8.640;2023-05-11T15:01:55;100045.19;;;13.15;100.00
46087;BME280;31824;49.648;8.640;2023-05-11T15:04:57;100055.22;;;12.65;100.00
46087;BME280;31824;49.648;8.640;2023-05-11T15:08:01;100064.22;;;12.57;100.00
46087;BME280;31824;49.648;8.640;2023-05-11T15:11:02;100056.34;;;12.46;100.00
46087;BME280;31824;49.648;8.640;2023-05-11T15:14:04;100068.25;;;12.21;100.00
46087;BME280;31824;49.648;8.640;2023-05-11T15:17:09;100066.69;;;12.23;100.00
46087;BME280;31824;49.648;8.640;2023-05-11T15:20:11;100066.81;;;11.93;100.00
46087;BME280;31824;49.648;8.640;2023-05-11T15:23:14;100074.59;;;12.02;100.00
46087;BME280;31824;49.648;8.640;2023-05-11T15:26:17;100073.31;;;11.97;100.00
46087;BME280;31824;49.648;8.640;2023-05-11T15:29:19;100072.63;;;11.89;100.00
46087;BME280;31824;49.648;8.640;2023-05-11T15:32:22;100078.53;;;11.87;100.00
46087;BME280;31824;49.648;8.640;2023-05-11T15:35:24;100071.69;;;12.20;100.00
46087;BME280;31824;49.648;8.640;2023-05-11T15:38:27;100072.69;;;12.32;100.00
46087;BME280;31824;49.648;8.640;2023-05-11T15:41:29;100075.75;;;12.26;100.00
46087;BME280;31824;49.648;8.640;2023-05-11T15:44:30;100080.03;;;12.04;100.00
46087;BME280;31824;49.648;8.640;2023-05-11T15:47:33;100074.78;;;12.36;100.00
46087;BME280;31824;49.648;8.640;2023-05-11T15:50:35;100077.72;;;12.39;100.00
46087;BME280;31824;49.648;8.640;2023-05-11T15:53:38;100075.31;;;12.42;100.00
46087;BME280;31824;49.648;8.640;2023-05-11T15:56:40;100088.66;;;12.66;100.00